Time;durP1;ratioP1;P1;durP2;ratioP2;P2;SDS_P1;SDS_P2;PMS_P1;PMS_P2;Temp;Humidity;BMP_temperature;BMP_pressure;BME280_temperature;BME280_humidity;BME280_pressure;Samples;Min_cycle;Max_cycle;Signal;HPM_P1;HPM_P2
2023/10/07 00:01:01;;;;;;;4.25;1.58;;;17.10;99.90;;;;;;5058475;28;20488;-63
2023/10/07 00:03:29;;;;;;;3.60;1.20;;;17.00;99.90;;;;;;5059602;28;20056;-65
2023/10/07 00:06:00;;;;;;;4.90;1.45;;;17.00;99.90;;;;;;5046231;28;20044;-63
2023/10/07 00:08:32;;;;;;;3.05;1.00;;;17.00;99.90;;;;;;5066323;28;20423;-65
2023/10/07 00:11:01;;;;;;;3.20;1.35;;;17.00;99.90;;;;;;5064916;28;20048;-64
2023/10/07 00:13:31;;;;;;;4.38;1.50;;;16.90;99.90;;;;;;5058092;28;20044;-64
2023/10/07 00:16:00;;;;;;;7.80;1.45;;;16.90;99.90;;;;;;5041280;28;20402;-64
2023/10/07 00:18:28;;;;;;;3.88;1.35;;;16.90;99.90;;;;;;5047376;28;20048;-62
2023/10/07 00:20:58;;;;;;;4.50;1.30;;;16.90;99.90;;;;;;5049864;28;20059;-63
2023/10/07 00:23:27;;;;;;;2.03;1.10;;;16.90;99.90;;;;;;5068994;28;20043;-63
2023/10/07 00:25:58;;;;;;;2.38;1.42;;;16.80;99.90;;;;;;5069164;28;20495;-62
2023/10/07 00:28:35;;;;;;;3.03;1.20;;;16.80;99.90;;;;;;5066137;28;20052;-65
2023/10/07 00:31:12;;;;;;;5.03;1.30;;;16.80;99.90;;;;;;5069118;28;20127;-62
2023/10/07 00:34:02;;;;;;;4.90;1.60;;;16.80;99.90;;;;;;5043825;28;20049;-62
2023/10/07 00:39:07;;;;;;;4.88;1.42;;;16.70;99.90;;;;;;5064330;28;20032;-64
2023/10/07 00:41:51;;;;;;;4.68;1.30;;;16.70;99.90;;;;;;5061802;28;20435;-63
2023/10/07 00:44:22;;;;;;;6.65;1.55;;;16.60;99.90;;;;;;5043305;28;20033;-66
2023/10/07 00:47:01;;;;;;;3.50;1.52;;;16.60;99.90;;;;;;5063946;28;20049;-65
2023/10/07 00:49:39;;;;;;;7.65;1.75;;;16.50;99.90;;;;;;5059090;28;20045;-65
2023/10/07 00:52:22;;;;;;;3.97;1.42;;;16.50;99.90;;;;;;5063116;28;20063;-64
2023/10/07 00:54:57;;;;;;;;;;;16.50;99.90;;;;;;5064734;28;20044;-65
2023/10/07 01:00:14;;;;;;;5.03;1.50;;;16.40;99.90;;;;;;5052929;28;20037;-63
2023/10/07 01:02:42;;;;;;;4.95;1.77;;;16.30;99.90;;;;;;5036571;28;20055;-63
2023/10/07 01:05:21;;;;;;;5.38;1.65;;;16.30;99.90;;;;;;5036621;28;20045;-62
2023/10/07 01:07:53;;;;;;;4.65;1.65;;;16.20;99.90;;;;;;5058295;28;20052;-65
2023/10/07 01:10:26;;;;;;;5.88;1.50;;;16.20;99.90;;;;;;5070536;28;20037;-65
2023/10/07 01:12:59;;;;;;;4.22;1.80;;;16.10;99.90;;;;;;5068259;28;20521;-66
2023/10/07 01:15:29;;;;;;;5.03;2.03;;;16.10;99.90;;;;;;5059650;28;20044;-65
2023/10/07 01:18:03;;;;;;;4.15;1.67;;;16.10;99.90;;;;;;5065084;28;20507;-66
2023/10/07 01:21:31;;;;;;;6.53;1.85;;;16.10;99.90;;;;;;5044344;28;20064;-66
2023/10/07 01:23:32;;;;;;;4.45;1.90;;;16.00;99.90;;;;;;5040224;28;20645;-66
2023/10/07 01:26:02;;;;;;;4.75;2.72;;;16.00;99.90;;;;;;5037005;28;20048;-64
2023/10/07 01:28:38;;;;;;;7.25;2.25;;;16.00;99.90;;;;;;5061528;28;20045;-65
2023/10/07 01:31:18;;;;;;;5.38;1.77;;;16.00;99.90;;;;;;5057135;28;20271;-65
2023/10/07 01:33:47;;;;;;;;;;;16.00;99.90;;;;;;5038780;28;20045;-65
2023/10/07 01:38:44;;;;;;;4.70;1.90;;;15.90;99.90;;;;;;5052402;28;20064;-63
2023/10/07 01:41:19;;;;;;;5.13;2.00;;;15.90;99.90;;;;;;5044497;28;20040;-63
2023/10/07 01:44:04;;;;;;;6.72;1.95;;;15.90;99.90;;;;;;5050296;28;20523;-64
2023/10/07 01:46:34;;;;;;;6.18;2.25;;;15.80;99.90;;;;;;5062541;28;20055;-63
2023/10/07 01:49:11;;;;;;;9.57;2.50;;;15.80;99.90;;;;;;5051457;28;20428;-63
2023/10/07 01:51:44;;;;;;;5.20;2.35;;;15.80;99.90;;;;;;5072785;28;20064;-64
2023/10/07 01:54:13;;;;;;;5.75;2.33;;;15.80;99.90;;;;;;5050297;28;20619;-62
2023/10/07 01:56:41;;;;;;;5.25;1.88;;;15.70;99.90;;;;;;5052677;28;20037;-64
2023/10/07 01:59:17;;;;;;;6.68;2.30;;;15.80;99.90;;;;;;5038129;28;20052;-64
2023/10/07 02:02:06;;;;;;;10.40;2.75;;;15.70;99.90;;;;;;5053992;28;20032;-63
2023/10/07 02:04:36;;;;;;;8.98;2.58;;;15.70;99.90;;;;;;5068176;28;20048;-65
2023/10/07 02:07:04;;;;;;;11.25;3.28;;;15.70;99.90;;;;;;5054485;28;20527;-63
2023/10/07 02:09:42;;;;;;;8.38;3.05;;;15.70;99.90;;;;;;5072572;28;20048;-64
2023/10/07 02:12:11;;;;;;;10.13;2.35;;;15.70;99.90;;;;;;5054371;28;20074;-64
2023/10/07 02:14:39;;;;;;;7.05;2.50;;;15.70;99.90;;;;;;5063882;28;20052;-63
2023/10/07 02:17:19;;;;;;;9.90;3.00;;;15.60;99.90;;;;;;5048865;28;20032;-65
2023/10/07 02:19:53;;;;;;;9.23;2.30;;;15.60;99.90;;;;;;5055899;28;20401;-64
2023/10/07 02:22:27;;;;;;;8.02;2.17;;;15.60;99.90;;;;;;5069274;28;20044;-65
2023/10/07 02:25:04;;;;;;;6.45;2.50;;;15.60;99.90;;;;;;5050395;28;20044;-65
2023/10/07 02:27:40;;;;;;;8.27;2.53;;;15.60;99.90;;;;;;5055742;28;20051;-64
2023/10/07 02:30:19;;;;;;;10.68;2.50;;;15.60;99.90;;;;;;5038044;28;20776;-64
2023/10/07 02:32:48;;;;;;;8.88;2.88;;;15.60;99.90;;;;;;5068187;28;20605;-64
2023/10/07 02:35:19;;;;;;;11.48;2.78;;;15.60;99.90;;;;;;5070073;28;20044;-64
2023/10/07 02:37:50;;;;;;;6.82;2.40;;;15.60;99.90;;;;;;5053175;28;20407;-64
2023/10/07 02:40:22;;;;;;;8.02;2.70;;;15.50;99.90;;;;;;5072145;28;20055;-65
2023/10/07 02:42:52;;;;;;;5.47;2.55;;;15.50;99.90;;;;;;5068903;28;20045;-63
2023/10/07 02:45:28;;;;;;;9.77;2.65;;;15.50;99.90;;;;;;5068378;28;20048;-64
2023/10/07 02:48:01;;;;;;;9.88;2.70;;;15.40;99.90;;;;;;5050682;28;20044;-64
2023/10/07 02:50:31;;;;;;;10.75;3.05;;;15.40;99.90;;;;;;5066417;28;20048;-63
2023/10/07 02:53:02;;;;;;;10.52;2.92;;;15.40;99.90;;;;;;5071207;28;20044;-64
2023/10/07 02:55:45;;;;;;;9.93;2.50;;;15.30;99.90;;;;;;5068476;28;20575;-63
2023/10/07 02:58:25;;;;;;;9.90;2.65;;;15.30;99.90;;;;;;5053175;28;20036;-65
2023/10/07 03:00:58;;;;;;;7.28;2.75;;;15.20;99.90;;;;;;5070953;28;20059;-64
2023/10/07 03:06:06;;;;;;;11.90;2.83;;;15.20;99.90;;;;;;5071566;28;20044;-63
2023/10/07 03:11:20;;;;;;;8.20;3.20;;;15.10;99.90;;;;;;5068476;28;20051;-64
2023/10/07 03:13:50;;;;;;;14.35;3.03;;;15.10;99.90;;;;;;5071061;28;20041;-64
2023/10/07 03:24:13;;;;;;;10.52;3.17;;;15.00;99.90;;;;;;5048016;28;20049;-64
2023/10/07 03:26:45;;;;;;;12.23;3.28;;;15.00;99.90;;;;;;5051472;28;20052;-65
2023/10/07 03:29:29;;;;;;;7.57;3.10;;;15.00;99.90;;;;;;5067129;28;20063;-64
2023/10/07 03:31:59;;;;;;;7.35;3.75;;;15.00;99.90;;;;;;5070395;28;20040;-65
2023/10/07 03:34:27;;;;;;;8.82;3.30;;;15.00;99.90;;;;;;5052502;28;20051;-65
2023/10/07 03:39:55;;;;;;;9.10;2.90;;;15.00;99.90;;;;;;5070491;28;20079;-64
2023/10/07 03:42:23;;;;;;;10.10;2.67;;;14.90;99.90;;;;;;5070838;28;20060;-64
2023/10/07 03:44:51;;;;;;;7.68;2.80;;;14.90;99.90;;;;;;5069382;28;20048;-64
2023/10/07 03:47:18;;;;;;;7.78;2.80;;;14.80;99.90;;;;;;5068731;28;20036;-64
2023/10/07 03:49:52;;;;;;;8.02;2.67;;;14.80;99.90;;;;;;5051005;28;20060;-65
2023/10/07 03:52:21;;;;;;;9.50;3.28;;;14.70;99.90;;;;;;5063353;28;20432;-65
2023/10/07 03:54:49;;;;;;;6.35;2.83;;;14.60;99.90;;;;;;5073740;28;20199;-64
2023/10/07 03:57:18;;;;;;;11.23;3.08;;;14.60;99.90;;;;;;5075051;28;20056;-63
2023/10/07 03:59:46;;;;;;;8.13;2.70;;;14.60;99.90;;;;;;5075290;28;20376;-63
2023/10/07 04:02:35;;;;;;;8.95;3.05;;;14.60;99.90;;;;;;5075106;28;20049;-64
2023/10/07 04:05:13;;;;;;;9.60;2.92;;;14.50;99.90;;;;;;5074087;28;20059;-64
2023/10/07 04:07:43;;;;;;;11.07;3.20;;;14.50;99.90;;;;;;5062249;28;20045;-66
2023/10/07 04:10:21;;;;;;;7.30;3.08;;;14.50;99.90;;;;;;5074904;28;20041;-65
2023/10/07 04:12:49;;;;;;;9.38;3.55;;;14.40;99.90;;;;;;5074905;28;20047;-65
2023/10/07 04:15:18;;;;;;;11.80;4.68;;;14.40;99.90;;;;;;5075128;28;20045;-64
2023/10/07 04:17:46;;;;;;;11.68;4.35;;;14.40;99.90;;;;;;5071659;28;20531;-65
2023/10/07 04:20:28;;;;;;;10.90;3.63;;;14.40;99.90;;;;;;5072443;28;20048;-64
2023/10/07 04:23:00;;;;;;;9.63;3.90;;;14.40;99.90;;;;;;5073920;28;20055;-64
2023/10/07 04:25:31;;;;;;;14.75;3.70;;;14.40;99.90;;;;;;5054589;28;20048;-63
2023/10/07 04:28:06;;;;;;;14.77;4.70;;;14.40;99.90;;;;;;5068910;28;20045;-65
2023/10/07 04:30:46;;;;;;;9.75;4.45;;;14.40;99.90;;;;;;5074280;28;20408;-65
2023/10/07 04:33:17;;;;;;;9.75;4.70;;;14.50;99.90;;;;;;5074378;28;20048;-65
2023/10/07 04:35:50;;;;;;;12.43;4.68;;;14.50;99.90;;;;;;5074160;28;20040;-64
2023/10/07 04:41:30;;;;;;;9.68;5.28;;;14.50;99.90;;;;;;5073367;28;20609;-65
2023/10/07 04:46:22;;;;;;;15.13;5.25;;;14.60;99.90;;;;;;5064199;28;20513;-65
2023/10/07 04:48:54;;;;;;;10.93;5.40;;;14.60;99.90;;;;;;5061619;28;20059;-65
2023/10/07 04:54:11;;;;;;;12.50;5.25;;;14.70;99.90;;;;;;5048049;28;20496;-63
2023/10/07 04:56:40;;;;;;;8.77;4.72;;;14.80;99.90;;;;;;5061569;28;20048;-65
2023/10/07 04:59:11;;;;;;;13.52;5.50;;;14.80;99.90;;;;;;5066113;28;20041;-62
2023/10/07 05:01:42;;;;;;;15.93;6.13;;;14.80;99.90;;;;;;5066773;28;20252;-66
2023/10/07 05:04:13;;;;;;;10.07;4.60;;;14.90;99.90;;;;;;5060709;28;20867;-64
2023/10/07 05:06:43;;;;;;;13.80;5.88;;;14.90;99.90;;;;;;5061680;28;20037;-65
2023/10/07 05:09:18;;;;;;;10.77;4.93;;;15.00;99.90;;;;;;5056785;28;20040;-65
2023/10/07 05:11:47;;;;;;;12.57;6.07;;;15.00;99.90;;;;;;5066714;28;20044;-66
2023/10/07 05:14:17;;;;;;;16.20;6.13;;;15.10;99.90;;;;;;5046936;28;20040;-64
2023/10/07 05:16:48;;;;;;;12.27;4.95;;;15.10;99.90;;;;;;5062597;28;20518;-65
2023/10/07 05:19:22;;;;;;;14.77;5.68;;;15.10;99.90;;;;;;5061741;28;20053;-63
2023/10/07 05:24:38;;;;;;;11.80;5.20;;;15.20;99.90;;;;;;5046595;28;20041;-65
2023/10/07 05:27:06;;;;;;;18.48;5.93;;;15.20;99.90;;;;;;5069270;28;20415;-63
2023/10/07 05:29:34;;;;;;;17.60;5.95;;;15.20;99.90;;;;;;5067447;28;20047;-65
2023/10/07 05:32:01;;;;;;;16.50;5.90;;;15.20;99.90;;;;;;5063765;28;20602;-65
2023/10/07 05:34:30;;;;;;;15.20;5.50;;;15.20;99.90;;;;;;5058473;28;20056;-64
2023/10/07 05:37:04;;;;;;;13.98;5.43;;;15.20;99.90;;;;;;5065226;28;20045;-64
2023/10/07 05:39:32;;;;;;;14.38;5.43;;;15.30;99.90;;;;;;5064654;28;20048;-64
2023/10/07 05:42:01;;;;;;;13.13;5.95;;;15.20;99.90;;;;;;5060092;28;20064;-64
2023/10/07 05:44:31;;;;;;;12.55;6.05;;;15.20;99.90;;;;;;5055361;28;20075;-64
2023/10/07 05:47:02;;;;;;;15.50;6.22;;;15.20;99.90;;;;;;5057463;28;20511;-66
2023/10/07 05:49:33;;;;;;;18.25;5.68;;;15.20;99.90;;;;;;5024603;28;20942;-64
2023/10/07 05:52:04;;;;;;;12.52;6.07;;;15.20;99.90;;;;;;5056625;28;20222;-66
2023/10/07 05:54:32;;;;;;;13.75;6.10;;;15.20;99.90;;;;;;5060355;28;20060;-64
2023/10/07 05:57:04;;;;;;;;;;;15.20;99.90;;;;;;5042366;28;20639;-65
2023/10/07 05:59:34;;;;;;;16.45;6.72;;;15.10;99.90;;;;;;5042432;28;19927;-64
2023/10/07 06:02:05;;;;;;;14.38;6.38;;;15.20;99.90;;;;;;5057956;28;20041;-64
2023/10/07 06:04:35;;;;;;;21.38;6.10;;;15.10;99.90;;;;;;5041194;28;20538;-65
2023/10/07 06:07:06;;;;;;;18.60;6.25;;;15.10;99.90;;;;;;5058726;28;20060;-64
2023/10/07 06:09:36;;;;;;;14.43;6.75;;;15.10;99.90;;;;;;5041900;28;20411;-64
2023/10/07 06:12:07;;;;;;;23.58;7.30;;;15.20;99.90;;;;;;5048109;28;20081;-66
2023/10/07 06:14:36;;;;;;;18.63;7.10;;;15.10;99.90;;;;;;5061091;28;20048;-66
2023/10/07 06:17:07;;;;;;;17.33;6.80;;;15.10;99.90;;;;;;5046154;28;20044;-63
2023/10/07 06:19:36;;;;;;;18.95;6.40;;;15.10;99.90;;;;;;5056633;28;20041;-65
2023/10/07 06:22:16;;;;;;;17.67;6.53;;;15.10;99.90;;;;;;5056518;28;20055;-66
2023/10/07 06:24:45;;;;;;;20.45;6.50;;;15.10;99.90;;;;;;5055949;28;20575;-66
2023/10/07 06:27:20;;;;;;;;;;;15.10;99.90;;;;;;5045775;28;20040;-65
2023/10/07 06:29:49;;;;;;;16.33;6.57;;;15.10;99.90;;;;;;5066689;28;19920;-65
2023/10/07 06:32:22;;;;;;;23.00;6.80;;;15.10;99.90;;;;;;5061654;28;20045;-65
2023/10/07 06:34:59;;;;;;;17.33;6.05;;;15.10;99.90;;;;;;5061915;28;20045;-64
2023/10/07 06:37:31;;;;;;;18.75;6.93;;;15.10;99.90;;;;;;5057650;28;20061;-66
2023/10/07 06:40:00;;;;;;;15.43;6.15;;;15.10;99.90;;;;;;5059534;28;20586;-65
2023/10/07 06:42:28;;;;;;;15.82;5.32;;;15.00;99.90;;;;;;5056944;28;20049;-63
2023/10/07 06:44:56;;;;;;;21.88;6.15;;;15.10;99.90;;;;;;5043256;28;20048;-64
2023/10/07 06:47:29;;;;;;;21.48;6.45;;;15.10;99.90;;;;;;5065232;28;20516;-65
2023/10/07 06:50:02;;;;;;;22.05;6.78;;;15.10;99.90;;;;;;5058899;28;20066;-64
2023/10/07 06:52:32;;;;;;;18.98;7.00;;;15.20;99.90;;;;;;5064081;28;20044;-66
2023/10/07 06:55:02;;;;;;;18.15;6.03;;;15.20;99.90;;;;;;5062400;28;20068;-63
2023/10/07 06:57:36;;;;;;;17.92;6.25;;;15.30;99.90;;;;;;5057288;28;20471;-62
2023/10/07 07:00:11;;;;;;;21.52;5.75;;;15.30;99.90;;;;;;5063063;28;20033;-65
2023/10/07 07:02:53;;;;;;;15.18;5.22;;;15.40;99.90;;;;;;5046656;28;20036;-63
2023/10/07 07:05:23;;;;;;;16.02;6.10;;;15.40;99.90;;;;;;5043930;28;20053;-64
2023/10/07 07:07:54;;;;;;;14.43;6.15;;;15.40;99.90;;;;;;5060345;28;20045;-63
2023/10/07 07:10:28;;;;;;;19.98;5.82;;;15.50;99.90;;;;;;5061574;28;20056;-65
2023/10/07 07:12:59;;;;;;;20.20;6.40;;;15.50;99.90;;;;;;5059373;28;20040;-64
2023/10/07 07:15:36;;;;;;;17.45;5.43;;;15.50;99.90;;;;;;5031053;28;20056;-63
2023/10/07 07:18:14;;;;;;;10.30;5.03;;;15.50;99.90;;;;;;5055162;28;20052;-64
2023/10/07 07:20:49;;;;;;;16.25;5.20;;;15.50;99.90;;;;;;5067121;28;20040;-66
2023/10/07 07:23:21;;;;;;;10.20;5.00;;;15.50;99.90;;;;;;5045376;28;20056;-62
2023/10/07 07:28:32;;;;;;;18.42;5.93;;;15.60;99.90;;;;;;5047249;28;20072;-65
2023/10/07 07:31:00;;;;;;;15.38;5.82;;;15.60;99.90;;;;;;5047963;28;20509;-64
2023/10/07 07:33:31;;;;;;;16.55;4.93;;;15.60;99.90;;;;;;5014286;28;20052;-64
2023/10/07 07:36:03;;;;;;;17.88;5.90;;;15.70;99.90;;;;;;5067753;28;20048;-66
2023/10/07 07:38:43;;;;;;;16.10;5.25;;;15.70;99.90;;;;;;5062506;28;20048;-64
2023/10/07 07:41:26;;;;;;;18.73;5.75;;;15.80;99.90;;;;;;5048887;28;20480;-64
2023/10/07 07:43:58;;;;;;;16.15;5.97;;;15.80;99.90;;;;;;5037178;28;20048;-64
2023/10/07 07:46:29;;;;;;;16.65;5.85;;;15.80;99.90;;;;;;5062030;28;20044;-64
2023/10/07 07:49:06;;;;;;;16.35;5.03;;;15.80;99.90;;;;;;5043313;28;20476;-65
2023/10/07 07:51:43;;;;;;;14.15;5.40;;;15.90;99.90;;;;;;5060411;28;20051;-63
2023/10/07 07:54:14;;;;;;;15.75;5.53;;;15.90;99.90;;;;;;5055893;28;20300;-65
2023/10/07 07:56:42;;;;;;;16.17;6.28;;;15.90;99.90;;;;;;5047627;28;20040;-65
2023/10/07 07:59:17;;;;;;;13.15;5.28;;;15.90;99.90;;;;;;5045377;28;20044;-64
2023/10/07 08:02:12;;;;;;;16.33;6.25;;;15.90;99.90;;;;;;5047756;28;20496;-63
2023/10/07 08:04:48;;;;;;;15.25;6.07;;;15.90;99.90;;;;;;5066370;28;20044;-65
2023/10/07 08:09:57;;;;;;;15.15;5.63;;;15.90;99.90;;;;;;5060879;28;20044;-65
2023/10/07 08:12:36;;;;;;;16.73;5.93;;;15.90;99.90;;;;;;5064837;28;20048;-66
2023/10/07 08:17:45;;;;;;;15.77;5.22;;;16.00;99.90;;;;;;5059433;28;20048;-66
2023/10/07 08:20:14;;;;;;;13.45;5.20;;;16.00;99.90;;;;;;5050241;28;20400;-65
2023/10/07 08:22:45;;;;;;;12.52;5.30;;;16.00;99.90;;;;;;5034952;28;20053;-65
2023/10/07 08:25:17;;;;;;;12.95;5.25;;;16.00;99.90;;;;;;5059692;28;20075;-65
2023/10/07 08:27:49;;;;;;;11.43;5.03;;;16.10;99.90;;;;;;5051292;28;20044;-64
2023/10/07 08:30:37;;;;;;;17.73;6.10;;;16.10;99.90;;;;;;5066162;28;20044;-64
2023/10/07 08:33:12;;;;;;;17.38;5.88;;;16.20;99.90;;;;;;5035383;28;20652;-66
2023/10/07 08:35:43;;;;;;;15.25;6.00;;;16.20;99.90;;;;;;5062933;28;20055;-63
2023/10/07 08:38:22;;;;;;;16.27;5.43;;;16.30;99.90;;;;;;5060261;28;20037;-63
2023/10/07 08:41:26;;;;;;;16.67;5.70;;;16.40;99.90;;;;;;5045869;28;20055;-65
2023/10/07 08:44:03;;;;;;;12.48;4.75;;;16.50;99.90;;;;;;5032781;28;20033;-66
2023/10/07 08:46:37;;;;;;;14.52;5.38;;;16.60;99.90;;;;;;5058314;28;20059;-64
2023/10/07 08:49:12;;;;;;;12.27;5.20;;;16.70;99.90;;;;;;5059031;28;20044;-65
2023/10/07 08:51:42;;;;;;;19.40;5.53;;;16.90;99.90;;;;;;5070793;28;20049;-65
2023/10/07 08:54:17;;;;;;;15.18;5.85;;;16.80;99.90;;;;;;5057451;28;20041;-65
2023/10/07 08:56:54;;;;;;;13.43;4.95;;;16.80;99.90;;;;;;5050788;28;20036;-65
2023/10/07 08:59:23;;;;;;;16.40;5.10;;;16.90;99.90;;;;;;5050385;28;20044;-66
2023/10/07 09:02:00;;;;;;;14.50;5.90;;;16.90;99.90;;;;;;5061735;28;20056;-65
2023/10/07 09:04:33;;;;;;;16.10;5.55;;;16.80;99.90;;;;;;5059050;28;20041;-64
2023/10/07 09:07:08;;;;;;;15.18;5.10;;;16.80;99.90;;;;;;5070170;28;20052;-65
2023/10/07 09:09:38;;;;;;;13.13;5.32;;;16.80;99.90;;;;;;5052140;28;20057;-65
2023/10/07 09:12:29;;;;;;;14.90;4.50;;;16.80;99.90;;;;;;5050727;28;20061;-64
2023/10/07 09:15:07;;;;;;;19.30;6.03;;;16.80;99.90;;;;;;5069989;28;20066;-63
2023/10/07 09:17:35;;;;;;;15.55;4.78;;;16.80;99.90;;;;;;5056023;28;20049;-65
2023/10/07 09:20:06;;;;;;;18.58;6.53;;;16.80;99.90;;;;;;5070116;28;20063;-65
2023/10/07 09:22:35;;;;;;;12.90;5.28;;;16.80;99.90;;;;;;5069270;28;20099;-65
2023/10/07 09:25:19;;;;;;;14.43;5.68;;;16.80;99.90;;;;;;5051580;28;20056;-65
2023/10/07 09:27:54;;;;;;;14.23;5.57;;;16.80;99.90;;;;;;5052908;28;20469;-65
2023/10/07 09:33:21;;;;;;;16.63;4.88;;;16.90;99.90;;;;;;5049654;28;20607;-65
2023/10/07 09:36:22;;;;;;;17.45;5.03;;;16.90;99.90;;;;;;5052894;28;20056;-65
2023/10/07 09:38:48;;;;;;;12.52;4.78;;;16.90;99.90;;;;;;5057936;28;20037;-65
2023/10/07 09:41:24;;;;;;;13.80;5.15;;;17.00;99.90;;;;;;5050340;28;20386;-65
2023/10/07 09:43:56;;;;;;;17.67;5.30;;;17.10;99.90;;;;;;5061070;28;20060;-64
2023/10/07 09:46:25;;;;;;;17.05;5.97;;;17.10;99.90;;;;;;5070215;28;20048;-65
2023/10/07 09:48:57;;;;;;;18.40;6.53;;;17.20;99.90;;;;;;5069430;28;20044;-64
2023/10/07 09:51:35;;;;;;;12.38;5.25;;;17.30;99.90;;;;;;5069602;28;20048;-64
2023/10/07 09:54:16;;;;;;;14.98;6.03;;;17.40;99.90;;;;;;5052119;28;20041;-64
2023/10/07 09:57:06;;;;;;;15.75;5.75;;;17.50;99.90;;;;;;5067914;28;20059;-64
2023/10/07 09:59:57;;;;;;;12.23;5.53;;;17.70;99.90;;;;;;5059820;28;20055;-67
2023/10/07 10:02:48;;;;;;;18.50;6.32;;;17.80;99.90;;;;;;5066191;28;20052;-62
2023/10/07 10:05:29;;;;;;;17.45;5.18;;;17.90;99.90;;;;;;5065943;28;20056;-64
2023/10/07 10:08:11;;;;;;;13.35;4.88;;;17.90;99.90;;;;;;5062028;28;20049;-65
2023/10/07 10:10:45;;;;;;;16.58;5.80;;;18.00;99.90;;;;;;5049383;28;20037;-65
2023/10/07 10:13:29;;;;;;;10.07;5.28;;;18.10;99.90;;;;;;5048902;28;20071;-64
2023/10/07 10:16:00;;;;;;;15.55;5.70;;;18.20;99.90;;;;;;5049223;28;20048;-64
2023/10/07 10:18:40;;;;;;;14.95;5.63;;;18.20;99.90;;;;;;5067429;28;20052;-64
2023/10/07 10:21:14;;;;;;;;;;;18.30;99.90;;;;;;5068479;28;20048;-65
2023/10/07 10:23:44;;;;;;;16.33;5.50;;;18.30;99.90;;;;;;5068492;28;19943;-65
2023/10/07 10:26:20;;;;;;;12.55;5.13;;;18.30;99.90;;;;;;5068983;28;20053;-65
2023/10/07 10:29:06;;;;;;;13.45;5.15;;;18.30;99.90;;;;;;5067354;28;20052;-66
2023/10/07 10:31:35;;;;;;;16.25;5.57;;;18.30;99.90;;;;;;5068866;28;20064;-65
2023/10/07 10:34:05;;;;;;;11.90;4.82;;;18.30;99.90;;;;;;5067439;28;20047;-63
2023/10/07 10:36:43;;;;;;;13.32;4.82;;;18.30;99.90;;;;;;5061637;28;20044;-65
2023/10/07 10:39:31;;;;;;;15.48;6.45;;;18.30;99.90;;;;;;5068114;28;20044;-66
2023/10/07 10:42:13;;;;;;;18.23;5.28;;;18.30;99.90;;;;;;5066374;28;20044;-66
2023/10/07 10:57:43;;;;;;;15.98;6.18;;;18.30;99.90;;;;;;5021561;28;20448;-65
2023/10/07 11:00:22;;;;;;;12.98;5.20;;;18.70;99.90;;;;;;5014367;28;20464;-65
2023/10/07 11:02:51;;;;;;;15.68;4.90;;;18.70;99.90;;;;;;5016205;28;20042;-64
2023/10/07 11:05:22;;;;;;;17.65;5.75;;;18.60;99.90;;;;;;5024579;28;20045;-65
2023/10/07 11:07:51;;;;;;;15.77;5.25;;;18.60;99.90;;;;;;5012074;28;20057;-65
2023/10/07 11:10:23;;;;;;;14.90;5.45;;;18.60;99.90;;;;;;5014445;28;21474;-65
2023/10/07 11:12:56;;;;;;;14.27;4.55;;;18.60;99.90;;;;;;5023942;28;20472;-63
2023/10/07 11:15:25;;;;;;;19.20;5.68;;;18.60;99.90;;;;;;5023805;28;20528;-65
2023/10/07 11:17:58;;;;;;;11.50;5.45;;;18.50;99.90;;;;;;5022353;28;20061;-65
2023/10/07 11:20:33;;;;;;;13.63;5.05;;;18.60;99.90;;;;;;5001681;28;20488;-65
2023/10/07 11:23:02;;;;;;;16.70;5.55;;;18.60;99.90;;;;;;5020878;28;20049;-64
2023/10/07 11:25:33;;;;;;;11.45;5.13;;;18.60;99.90;;;;;;5020906;28;20056;-65
2023/10/07 11:28:11;;;;;;;12.13;5.18;;;18.60;99.90;;;;;;5015371;28;20053;-64
2023/10/07 11:30:46;;;;;;;15.35;4.95;;;18.60;99.90;;;;;;5020555;28;20393;-65
2023/10/07 11:33:19;;;;;;;11.95;4.85;;;18.60;99.90;;;;;;5021356;28;20061;-64
2023/10/07 11:35:59;;;;;;;13.45;4.50;;;18.70;99.90;;;;;;5015192;28;20635;-65
2023/10/07 11:38:28;;;;;;;10.55;4.82;;;18.70;99.90;;;;;;5015556;28;20312;-65
2023/10/07 11:40:56;;;;;;;19.42;5.22;;;18.70;99.90;;;;;;5023791;28;20409;-68
2023/10/07 11:43:24;;;;;;;14.77;5.65;;;18.70;99.90;;;;;;5021521;28;20052;-65
2023/10/07 11:45:52;;;;;;;14.63;5.45;;;18.70;99.90;;;;;;5024223;28;20411;-65
2023/10/07 11:48:21;;;;;;;18.67;5.28;;;18.70;99.90;;;;;;5018264;28;20121;-64
2023/10/07 11:50:49;;;;;;;15.15;4.97;;;18.80;99.90;;;;;;5017350;28;20030;-65
2023/10/07 11:53:19;;;;;;;16.58;6.07;;;18.80;99.90;;;;;;5022769;28;20049;-64
2023/10/07 11:55:48;;;;;;;9.35;4.45;;;18.90;99.90;;;;;;5011186;28;20061;-64
2023/10/07 11:58:17;;;;;;;13.10;5.28;;;19.00;99.90;;;;;;5011903;28;20038;-65
2023/10/07 12:00:46;;;;;;;20.00;4.95;;;19.00;99.90;;;;;;4992124;28;20053;-65
2023/10/07 12:03:14;;;;;;;12.77;5.07;;;19.10;99.90;;;;;;5008010;28;20050;-64
2023/10/07 12:05:43;;;;;;;14.45;4.63;;;19.30;99.90;;;;;;5007157;28;20046;-64
2023/10/07 12:08:11;;;;;;;13.52;4.90;;;19.40;99.90;;;;;;5010051;28;20050;-64
2023/10/07 12:10:40;;;;;;;14.68;4.70;;;19.70;99.90;;;;;;5002891;28;20049;-64
2023/10/07 12:13:11;;;;;;;11.48;4.43;;;20.20;99.90;;;;;;5002405;28;20057;-64
2023/10/07 12:15:42;;;;;;;12.23;4.40;;;20.50;99.90;;;;;;5009216;28;20057;-64
2023/10/07 12:18:29;;;;;;;10.80;4.28;;;20.90;99.90;;;;;;5005054;28;20045;-64
2023/10/07 12:21:00;;;;;;;11.27;4.20;;;21.10;99.90;;;;;;4995506;28;20042;-64
2023/10/07 12:23:29;;;;;;;17.00;4.25;;;21.30;99.90;;;;;;5007614;28;20042;-65
2023/10/07 12:25:57;;;;;;;16.30;4.32;;;21.30;99.90;;;;;;5003797;28;20054;-65
2023/10/07 12:28:25;;;;;;;12.85;4.10;;;21.40;99.90;;;;;;5006175;28;20506;-65
2023/10/07 12:30:52;;;;;;;11.25;4.00;;;21.40;99.90;;;;;;5000288;28;20380;-64
2023/10/07 12:33:20;;;;;;;12.18;4.28;;;21.40;99.90;;;;;;4985870;28;20042;-65
2023/10/07 12:36:16;;;;;;;13.40;3.90;;;21.30;99.90;;;;;;4985485;28;20053;-64
2023/10/07 12:38:44;;;;;;;15.07;4.22;;;21.00;99.90;;;;;;5005589;28;20054;-64
2023/10/07 12:41:15;;;;;;;12.38;4.15;;;20.80;99.90;;;;;;5006309;28;20053;-64
2023/10/07 12:43:43;;;;;;;15.95;4.68;;;20.70;99.90;;;;;;5006705;28;20057;-64
2023/10/07 12:46:10;;;;;;;17.67;4.30;;;20.70;99.90;;;;;;5002323;28;20041;-64
2023/10/07 12:48:42;;;;;;;10.20;4.43;;;20.60;99.90;;;;;;4999543;28;20049;-64
2023/10/07 12:51:11;;;;;;;17.70;4.75;;;20.50;99.90;;;;;;4994875;28;20042;-65
2023/10/07 12:53:40;;;;;;;;;;;20.40;99.90;;;;;;5003434;28;20041;-65
2023/10/07 12:56:19;;;;;;;25.13;5.22;;;20.30;99.90;;;;;;5003709;28;20415;-65
2023/10/07 12:58:48;;;;;;;13.77;4.07;;;20.30;99.90;;;;;;4990108;28;20065;-66
2023/10/07 13:01:19;;;;;;;12.18;3.65;;;20.20;99.90;;;;;;4993280;28;20054;-65
2023/10/07 13:03:48;;;;;;;15.85;5.57;;;20.20;99.90;;;;;;5003487;28;20038;-64
2023/10/07 13:06:16;;;;;;;13.40;3.90;;;20.20;99.90;;;;;;4989951;28;20042;-62
2023/10/07 13:08:44;;;;;;;18.48;4.35;;;20.50;99.90;;;;;;5002631;28;20053;-62
2023/10/07 13:11:20;;;;;;;22.27;4.88;;;20.90;99.90;;;;;;4995208;28;20072;-62
2023/10/07 13:13:48;;;;;;;18.42;5.07;;;21.40;99.90;;;;;;5004197;28;20049;-66
2023/10/07 13:16:17;;;;;;;33.28;4.90;;;21.80;99.90;;;;;;5003955;28;20481;-66
2023/10/07 13:18:45;;;;;;;17.48;4.35;;;22.00;99.90;;;;;;5002833;28;20273;-65
2023/10/07 13:21:13;;;;;;;10.20;4.60;;;22.00;99.90;;;;;;4990447;28;20042;-63
2023/10/07 13:23:42;;;;;;;11.93;4.07;;;21.80;99.90;;;;;;5000582;28;20049;-62
2023/10/07 13:26:10;;;;;;;16.10;4.63;;;21.70;99.90;;;;;;5002769;28;20050;-63
2023/10/07 13:28:39;;;;;;;21.13;4.40;;;21.50;99.90;;;;;;5004099;28;20201;-63
2023/10/07 13:31:08;;;;;;;21.88;4.13;;;21.40;99.90;;;;;;4996977;28;20052;-64
2023/10/07 13:33:36;;;;;;;;;;;21.30;99.90;;;;;;5005929;28;20469;-64
2023/10/07 13:36:06;;;;;;;31.48;5.57;;;21.20;99.90;;;;;;4991338;28;19922;-62
2023/10/07 13:38:35;;;;;;;28.48;5.70;;;21.00;99.90;;;;;;5004681;28;20049;-65
2023/10/07 13:41:06;;;;;;;16.80;4.35;;;20.90;99.90;;;;;;4999027;28;20053;-65
2023/10/07 13:43:34;;;;;;;23.35;5.53;;;20.80;99.90;;;;;;4992416;28;20401;-66
2023/10/07 13:46:11;;;;;;;13.68;4.05;;;20.70;99.90;;;;;;4983673;28;20057;-66
2023/10/07 13:48:42;;;;;;;16.65;4.68;;;20.60;99.90;;;;;;4989695;28;20761;-66
2023/10/07 13:51:10;;;;;;;13.45;4.57;;;20.40;99.90;;;;;;4996785;28;20050;-63
2023/10/07 13:56:43;;;;;;;18.75;4.95;;;20.30;99.90;;;;;;4988182;28;20880;-61
2023/10/07 13:59:11;;;;;;;18.73;4.80;;;20.20;99.90;;;;;;5004657;28;20050;-64
2023/10/07 14:01:40;;;;;;;15.50;3.90;;;20.10;99.90;;;;;;4993516;28;20053;-62
2023/10/07 14:04:08;;;;;;;13.15;4.10;;;20.10;99.90;;;;;;4996646;28;20046;-66
2023/10/07 14:06:36;;;;;;;14.20;4.40;;;20.00;99.90;;;;;;4997074;28;20405;-63
2023/10/07 14:09:15;;;;;;;14.13;4.13;;;20.00;99.90;;;;;;4996771;28;20409;-66
2023/10/07 14:11:46;;;;;;;15.00;4.20;;;19.90;99.90;;;;;;4998174;28;20049;-62